This is the latest recevied weather packets stored in our database for station/object HB9ZRH-10. If no packets are shown the sender has not sent any weather packets the latest 10 day(s).
| Time | Temp. | Humidity | Pressure | Rain* | Wind** | Luminosity | Snow |
|---|---|---|---|---|---|---|---|
| 1778101436 | 13.33° C | 50% | 1010.8 hPa | - | - | - | - |
| 1778101136 | 16.67° C | 47% | 1010.7 hPa | - | - | - | - |
| 1778100836 | 14.44° C | 48% | 1010.7 hPa | - | - | - | - |
| 1778100536 | 15.56° C | 48% | 1010.6 hPa | - | - | - | - |
| 1778100236 | 16.67° C | 46% | 1010.5 hPa | - | - | - | - |
| 1778099937 | 17.22° C | 47% | 1010.5 hPa | - | - | - | - |
| 1778099636 | 18.89° C | 45% | 1010.5 hPa | - | - | - | - |
| 1778099336 | 21.11° C | 43% | 1010.5 hPa | - | - | - | - |
| 1778099036 | 21.67° C | 43% | 1010.5 hPa | - | - | - | - |
| 1778098736 | 21.67° C | 43% | 1010.5 hPa | - | - | - | - |
| 1778098436 | 22.78° C | 43% | 1010.5 hPa | - | - | - | - |
| 1778098136 | 22.22° C | 43% | 1010.6 hPa | - | - | - | - |
| 1778097836 | 22.22° C | 43% | 1010.6 hPa | - | - | - | - |
| 1778097536 | 22.22° C | 43% | 1010.5 hPa | - | - | - | - |
| 1778097236 | 22.78° C | 43% | 1010.4 hPa | - | - | - | - |
| 1778096936 | 22.78° C | 43% | 1010.3 hPa | - | - | - | - |
| 1778096636 | 22.22° C | 44% | 1010.2 hPa | - | - | - | - |
| 1778096336 | 21.11° C | 45% | 1010.1 hPa | - | - | - | - |
| 1778096036 | 20.56° C | 45% | 1010.1 hPa | - | - | - | - |
| 1778095736 | 21.67° C | 45% | 1010 hPa | - | - | - | - |
| 1778095436 | 20° C | 46% | 1010.1 hPa | - | - | - | - |
| 1778095136 | 20.56° C | 45% | 1010 hPa | - | - | - | - |
| 1778094836 | 20.56° C | 45% | 1009.9 hPa | - | - | - | - |
| 1778094536 | 20° C | 46% | 1009.7 hPa | - | - | - | - |
| 1778094236 | 18.33° C | 48% | 1009.7 hPa | - | - | - | - |
* Rain since midnight (hover to see other rain measurements)
** Current wind speed in m/s (hover to see current wind gust speed)